sensor_id;sensor_type;location;lat;lon;timestamp;temperature;humidity
55151;DHT22;41041;43.162;20.538;2023-04-06T12:06:49;205.50;2176.00
55151;DHT22;41041;43.162;20.538;2023-04-06T12:09:19;205.40;2252.80
55151;DHT22;41041;43.162;20.538;2023-04-06T12:11:45;205.50;2176.00
55151;DHT22;41041;43.162;20.538;2023-04-06T12:14:11;205.40;2150.40
55151;DHT22;41041;43.162;20.538;2023-04-06T12:16:44;205.40;2150.40
55151;DHT22;41041;43.162;20.538;2023-04-06T12:19:10;205.30;2150.40
55151;DHT22;41041;43.162;20.538;2023-04-06T12:21:36;205.40;2150.40
55151;DHT22;41041;43.162;20.538;2023-04-06T12:24:03;205.40;2201.60
55151;DHT22;41041;43.162;20.538;2023-04-06T12:26:30;205.40;2176.00
55151;DHT22;41041;43.162;20.538;2023-04-06T12:28:55;205.60;2150.40
55151;DHT22;41041;43.162;20.538;2023-04-06T12:31:22;205.70;2150.40
55151;DHT22;41041;43.162;20.538;2023-04-06T12:33:49;230.60;2252.80
55151;DHT22;41041;43.162;20.538;2023-04-06T12:36:16;230.40;2150.40
55151;DHT22;41041;43.162;20.538;2023-04-06T12:38:44;205.70;2150.40
55151;DHT22;41041;43.162;20.538;2023-04-06T12:41:25;230.40;2150.40
55151;DHT22;41041;43.162;20.538;2023-04-06T12:43:50;230.40;2150.40
55151;DHT22;41041;43.162;20.538;2023-04-06T12:46:16;230.50;2150.40
55151;DHT22;41041;43.162;20.538;2023-04-06T12:48:42;230.40;2150.40
55151;DHT22;41041;43.162;20.538;2023-04-06T12:51:08;230.40;2150.40
55151;DHT22;41041;43.162;20.538;2023-04-06T12:53:34;205.70;2150.40
55151;DHT22;41041;43.162;20.538;2023-04-06T12:56:02;230.40;2124.80
55151;DHT22;41041;43.162;20.538;2023-04-06T12:58:27;205.70;2124.80
55151;DHT22;41041;43.162;20.538;2023-04-06T13:00:55;205.70;2124.80
55151;DHT22;41041;43.162;20.538;2023-04-06T13:03:23;205.60;2150.40
55151;DHT22;41041;43.162;20.538;2023-04-06T13:05:50;205.50;2201.60
55151;DHT22;41041;43.162;20.538;2023-04-06T13:08:17;205.60;2201.60
55151;DHT22;41041;43.162;20.538;2023-04-06T13:10:55;205.60;2201.60
55151;DHT22;41041;43.162;20.538;2023-04-06T13:13:28;205.70;2227.20
55151;DHT22;41041;43.162;20.538;2023-04-06T13:15:58;205.70;2201.60
55151;DHT22;41041;43.162;20.538;2023-04-06T13:18:24;205.70;2176.00
55151;DHT22;41041;43.162;20.538;2023-04-06T13:20:50;205.70;2176.00
55151;DHT22;41041;43.162;20.538;2023-04-06T13:23:16;205.70;2150.40
55151;DHT22;41041;43.162;20.538;2023-04-06T13:25:42;205.60;2150.40
55151;DHT22;41041;43.162;20.538;2023-04-06T13:28:08;205.70;2176.00
55151;DHT22;41041;43.162;20.538;2023-04-06T13:30:35;205.60;2176.00
55151;DHT22;41041;43.162;20.538;2023-04-06T13:33:01;205.60;2150.40
55151;DHT22;41041;43.162;20.538;2023-04-06T13:35:27;205.60;2176.00
55151;DHT22;41041;43.162;20.538;2023-04-06T13:37:53;205.50;2176.00
55151;DHT22;41041;43.162;20.538;2023-04-06T13:40:19;205.50;2176.00
55151;DHT22;41041;43.162;20.538;2023-04-06T13:42:44;205.50;2176.00
55151;DHT22;41041;43.162;20.538;2023-04-06T13:45:11;205.40;2176.00
55151;DHT22;41041;43.162;20.538;2023-04-06T13:47:37;205.40;2150.40
55151;DHT22;41041;43.162;20.538;2023-04-06T13:50:03;205.40;2150.40
55151;DHT22;41041;43.162;20.538;2023-04-06T13:52:29;205.40;2150.40
55151;DHT22;41041;43.162;20.538;2023-04-06T13:54:55;205.40;2176.00
55151;DHT22;41041;43.162;20.538;2023-04-06T13:57:21;205.30;2201.60
55151;DHT22;41041;43.162;20.538;2023-04-06T13:59:46;205.20;2176.00
55151;DHT22;41041;43.162;20.538;2023-04-06T14:02:12;205.30;2176.00
55151;DHT22;41041;43.162;20.538;2023-04-06T14:04:38;205.20;2227.20
55151;DHT22;41041;43.162;20.538;2023-04-06T14:07:04;205.30;2201.60
55151;DHT22;41041;43.162;20.538;2023-04-06T14:09:32;205.30;2201.60
55151;DHT22;41041;43.162;20.538;2023-04-06T14:11:58;205.30;2252.80
55151;DHT22;41041;43.162;20.538;2023-04-06T14:14:25;205.30;2176.00
55151;DHT22;41041;43.162;20.538;2023-04-06T14:16:51;205.20;2252.80
55151;DHT22;41041;43.162;20.538;2023-04-06T14:19:18;205.10;2176.00
55151;DHT22;41041;43.162;20.538;2023-04-06T14:21:47;205.20;2201.60
55151;DHT22;41041;43.162;20.538;2023-04-06T14:24:14;205.20;2227.20
55151;DHT22;41041;43.162;20.538;2023-04-06T14:26:41;205.30;2227.20
55151;DHT22;41041;43.162;20.538;2023-04-06T14:29:08;205.30;2201.60
55151;DHT22;41041;43.162;20.538;2023-04-06T14:31:34;205.40;2176.00
55151;DHT22;41041;43.162;20.538;2023-04-06T14:34:02;205.50;2201.60
55151;DHT22;41041;43.162;20.538;2023-04-06T14:36:28;205.60;2201.60
55151;DHT22;41041;43.162;20.538;2023-04-06T14:38:57;205.60;2176.00
55151;DHT22;41041;43.162;20.538;2023-04-06T14:41:24;205.60;2201.60
55151;DHT22;41041;43.162;20.538;2023-04-06T14:43:55;205.70;2201.60
55151;DHT22;41041;43.162;20.538;2023-04-06T14:46:20;230.40;2176.00
55151;DHT22;41041;43.162;20.538;2023-04-06T14:48:47;205.70;2176.00
55151;DHT22;41041;43.162;20.538;2023-04-06T14:51:14;205.70;2150.40
55151;DHT22;41041;43.162;20.538;2023-04-06T14:53:40;230.40;2150.40
55151;DHT22;41041;43.162;20.538;2023-04-06T14:56:06;205.70;2150.40
55151;DHT22;41041;43.162;20.538;2023-04-06T14:58:31;230.40;2124.80
55151;DHT22;41041;43.162;20.538;2023-04-06T15:01:01;205.70;2150.40
55151;DHT22;41041;43.162;20.538;2023-04-06T15:03:28;205.70;2150.40
55151;DHT22;41041;43.162;20.538;2023-04-06T15:05:57;205.70;2150.40
55151;DHT22;41041;43.162;20.538;2023-04-06T15:08:23;205.70;2150.40
55151;DHT22;41041;43.162;20.538;2023-04-06T15:10:51;205.70;2150.40
55151;DHT22;41041;43.162;20.538;2023-04-06T15:13:17;205.70;2176.00
55151;DHT22;41041;43.162;20.538;2023-04-06T15:15:44;205.70;2176.00
55151;DHT22;41041;43.162;20.538;2023-04-06T15:18:10;230.40;2176.00
55151;DHT22;41041;43.162;20.538;2023-04-06T15:20:37;230.40;2150.40
55151;DHT22;41041;43.162;20.538;2023-04-06T15:23:03;205.70;2150.40
55151;DHT22;41041;43.162;20.538;2023-04-06T15:25:30;230.40;2150.40
55151;DHT22;41041;43.162;20.538;2023-04-06T15:27:56;230.40;2124.80
55151;DHT22;41041;43.162;20.538;2023-04-06T15:30:22;230.40;2124.80
55151;DHT22;41041;43.162;20.538;2023-04-06T15:32:59;230.40;2124.80
55151;DHT22;41041;43.162;20.538;2023-04-06T15:35:29;230.40;2124.80
55151;DHT22;41041;43.162;20.538;2023-04-06T15:37:58;230.40;2124.80
55151;DHT22;41041;43.162;20.538;2023-04-06T15:40:25;230.40;2150.40
55151;DHT22;41041;43.162;20.538;2023-04-06T15:42:51;230.40;2124.80
55151;DHT22;41041;43.162;20.538;2023-04-06T15:45:17;230.40;2150.40
55151;DHT22;41041;43.162;20.538;2023-04-06T15:47:44;230.40;2124.80
55151;DHT22;41041;43.162;20.538;2023-04-06T15:50:11;205.70;2124.80
55151;DHT22;41041;43.162;20.538;2023-04-06T15:52:38;205.70;2099.20
55151;DHT22;41041;43.162;20.538;2023-04-06T15:55:05;205.70;2099.20
55151;DHT22;41041;43.162;20.538;2023-04-06T15:57:32;205.70;2099.20
55151;DHT22;41041;43.162;20.538;2023-04-06T15:59:58;205.70;2099.20
55151;DHT22;41041;43.162;20.538;2023-04-06T16:02:24;205.70;2099.20
55151;DHT22;41041;43.162;20.538;2023-04-06T16:04:59;205.70;2099.20
55151;DHT22;41041;43.162;20.538;2023-04-06T16:07:27;205.60;2099.20
55151;DHT22;41041;43.162;20.538;2023-04-06T16:09:53;205.60;2099.20
55151;DHT22;41041;43.162;20.538;2023-04-06T16:12:19;205.60;2099.20
55151;DHT22;41041;43.162;20.538;2023-04-06T16:14:45;205.60;2099.20
55151;DHT22;41041;43.162;20.538;2023-04-06T16:17:11;205.70;2099.20
55151;DHT22;41041;43.162;20.538;2023-04-06T16:19:37;205.60;2099.20
55151;DHT22;41041;43.162;20.538;2023-04-06T16:22:03;205.60;2099.20
55151;DHT22;41041;43.162;20.538;2023-04-06T16:24:29;205.70;2252.80
55151;DHT22;41041;43.162;20.538;2023-04-06T16:26:55;205.60;2099.20
55151;DHT22;41041;43.162;20.538;2023-04-06T16:29:22;205.60;2099.20
55151;DHT22;41041;43.162;20.538;2023-04-06T16:34:39;205.70;2124.80
55151;DHT22;41041;43.162;20.538;2023-04-06T16:37:05;205.60;2201.60
55151;DHT22;41041;43.162;20.538;2023-04-06T16:39:31;205.50;2201.60
55151;DHT22;41041;43.162;20.538;2023-04-06T16:41:56;205.40;2176.00
55151;DHT22;41041;43.162;20.538;2023-04-06T16:44:22;205.40;2201.60
55151;DHT22;41041;43.162;20.538;2023-04-06T16:46:48;205.30;2227.20
55151;DHT22;41041;43.162;20.538;2023-04-06T16:49:14;205.30;2252.80
55151;DHT22;41041;43.162;20.538;2023-04-06T16:51:41;205.30;2252.80
55151;DHT22;41041;43.162;20.538;2023-04-06T16:54:08;205.20;2252.80
55151;DHT22;41041;43.162;20.538;2023-04-06T16:56:52;205.20;2227.20
55151;DHT22;41041;43.162;20.538;2023-04-06T16:59:18;205.10;2252.80
55151;DHT22;41041;43.162;20.538;2023-04-06T17:01:43;205.10;2252.80
55151;DHT22;41041;43.162;20.538;2023-04-06T17:04:09;205.00;2252.80
55151;DHT22;41041;43.162;20.538;2023-04-06T17:06:38;204.90;2252.80
55151;DHT22;41041;43.162;20.538;2023-04-06T17:09:04;204.90;2252.80
55151;DHT22;41041;43.162;20.538;2023-04-06T17:14:52;204.80;2252.80
55151;DHT22;41041;43.162;20.538;2023-04-06T17:17:18;180.10;2252.80
55151;DHT22;41041;43.162;20.538;2023-04-06T17:19:43;180.00;2252.80
55151;DHT22;41041;43.162;20.538;2023-04-06T17:22:11;179.90;2252.80
